Tiempo atmosférico en la estación meteorológica de Tuineje, Las Palmas (1 m.)



Fecha
DESCASC
Temp. máxima en grados centígrados (hora)
DESCASC
Temp. mínima en grados centígrados (hora)
DESCASC
Temp. media en grados centígrados
DESCASC
Racha de viento máxima en m/sg (hora)
DESCASC
Velocidad máxima media en intervalos de 10 minutos(hora)
DESCASC
Precipitaciones diarias en mm
DESCASC
Precipitaciones de 00:00 a 06:00 en mm
DESCASC
Precipitaciones de 06:00 a 12:00 en mm
DESCASC
Precipitaciones de 12:00 a 18:00 en mm
DESCASC
Precipitaciones de 18:00 a 24:00 en mm
DESCASC

Gráficas

Temp. máximas Temp. mínimas Temp. medias Precipitaciones Rachas de viento máximas Velocidades máximas media en intervalos de 10 minutos

Datos horarios

Fecha y hora oficial Temperatura (ºC) Velocidad del viento (km/h) Dirección del viento Racha (km/h) Dirección de racha Precipitación (mm) Presión (hPa) Tendencia (hPa) Humedad (%)
2019-10-21 23:00:00 20 8 Norte 21 Norte 0 -- -- 54
2019-10-21 22:00:00 20.5 10 Norte 26 Noroeste 0 -- -- 54
2019-10-21 21:00:00 20.7 15 Norte 32 Norte 0 -- -- 55
2019-10-21 20:00:00 21.5 17 Norte 28 Norte 0 -- -- 52
2019-10-21 19:00:00 22.7 15 Nordeste 32 Norte 0 -- -- 45
2019-10-21 18:00:00 23.6 17 Norte 50 Nordeste 0 -- -- 39
2019-10-21 17:00:00 23.5 16 Nordeste 37 Nordeste 0 -- -- 49
2019-10-21 16:00:00 23.1 18 Nordeste 37 Norte 0 -- -- 55
2019-10-21 15:00:00 22.4 21 Norte 38 Nordeste 0 -- -- 56
2019-10-21 14:00:00 22.6 21 Nordeste 40 Norte 0 -- -- 53
2019-10-21 13:00:00 23.2 15 Nordeste 41 Nordeste 0 -- -- 51
2019-10-21 12:00:00 21.6 23 Norte 38 Norte 0 -- -- 59
2019-10-21 11:00:00 22.3 15 Nordeste 31 Nordeste 0 -- -- 54
2019-10-21 10:00:00 21.9 17 Nordeste 29 Nordeste 0 -- -- 57
2019-10-21 09:00:00 20.3 5 Nordeste 15 Norte 0 -- -- 64
2019-10-21 08:00:00 18.1 9 Nordeste 13 Nordeste 0 -- -- 70
2019-10-21 07:00:00 19.5 9 Nordeste 21 Nordeste 0 -- -- 64
2019-10-21 06:00:00 19.7 12 Nordeste 26 Nordeste 0 -- -- 62
2019-10-21 05:00:00 19.8 13 Norte 22 Norte 0 -- -- 68
2019-10-21 04:00:00 20 9 Norte 24 Norte 0 -- -- 67
2019-10-21 03:00:00 20.2 16 Nordeste 26 Norte 0 -- -- 65
2019-10-21 02:00:00 20.6 19 Nordeste 28 Norte 0 -- -- 68
2019-10-21 01:00:00 20.9 16 Nordeste 27 Nordeste 0 -- -- 68
2019-10-21 00:00:00 21.2 14 Nordeste 28 Nordeste 0 -- -- 72
2019-10-20 23:00:00 21.4 18 Nordeste 33 Nordeste 0 -- -- 74
2019-10-20 22:00:00 21.9 19 Nordeste 35 Norte 0 -- -- 69
2019-10-20 21:00:00 22.1 15 Nordeste 31 Norte 0 -- -- 70
2019-10-20 20:00:00 22.3 18 Nordeste 32 Nordeste 0 -- -- 71
2019-10-20 19:00:00 22.9 19 Nordeste 38 Nordeste 0 -- -- 67
2019-10-20 18:00:00 23.7 24 Nordeste 38 Nordeste 0 -- -- 62
2019-10-20 17:00:00 24.2 25 Nordeste 45 Nordeste 0 -- -- 59
2019-10-20 16:00:00 23.2 25 Nordeste 43 Norte 0 -- -- 69
2019-10-20 15:00:00 23.7 23 Nordeste 40 Nordeste 0 -- -- 72
2019-10-20 14:00:00 24 20 Este 44 Este 0 -- -- 72
2019-10-20 13:00:00 24 23 Este 37 Este 0 -- -- 71
2019-10-20 12:00:00 24.5 12 Este 27 Nordeste 0 -- -- 64
2019-10-20 11:00:00 24.4 21 Nordeste 31 Nordeste 0 -- -- 63
2019-10-20 10:00:00 23.3 12 Nordeste 17 Nordeste 0 -- -- 70
2019-10-20 09:00:00 21.5 7 Norte 11 Nordeste 0 -- -- 83
2019-10-20 08:00:00 20.2 7 Nordeste 16 Nordeste 0 -- -- 87
2019-10-20 07:00:00 20.3 7 Nordeste 12 Norte 0 -- -- 86
2019-10-20 06:00:00 20.2 8 Nordeste 13 Nordeste 0 -- -- 86
2019-10-20 05:00:00 20.7 10 Nordeste 21 Norte 0 -- -- 84
2019-10-20 04:00:00 20.9 10 Nordeste 17 Norte 0 -- -- 83
2019-10-20 03:00:00 21.4 10 Nordeste 23 Norte 0 -- -- 80
2019-10-20 02:00:00 21.8 11 Norte 23 Norte 0 -- -- 78
2019-10-20 01:00:00 21.8 12 Norte 21 Norte 0 -- -- 80
2019-10-20 00:00:00 22.1 10 Nordeste 20 Norte 0 -- -- 75
2019-10-19 23:00:00 22.3 12 Norte 22 Norte 0 -- -- 77
2019-10-19 22:00:00 22.4 11 Nordeste 30 Norte 0 -- -- 75
2019-10-19 21:00:00 22.7 19 Norte 35 Nordeste 0 -- -- 72
2019-10-19 20:00:00 23.3 18 Norte 32 Norte 0 -- -- 67
2019-10-19 19:00:00 24.9 18 Norte 31 Norte 0 -- -- 58
2019-10-19 18:00:00 26.3 16 Norte 32 Norte 0 -- -- 54
2019-10-19 17:00:00 27.3 19 Norte 30 Norte 0 -- -- 52
2019-10-19 16:00:00 28.2 11 Norte 29 Nordeste 0 -- -- 50
2019-10-19 15:00:00 27.6 14 Norte 30 Norte 0 -- -- 51
2019-10-19 14:00:00 28 13 Norte 25 Norte 0 -- -- 50
2019-10-19 13:00:00 27.4 12 Norte 24 Norte 0 -- -- 50
2019-10-19 12:00:00 25.6 16 Nordeste 28 Norte 0 -- -- 54
2019-10-19 11:00:00 24.2 17 Norte 27 Nordeste 0 -- -- 61
2019-10-19 10:00:00 22.7 13 Norte 25 Norte 0 -- -- 68
2019-10-19 09:00:00 19.5 6 Nordeste 11 Nordeste 0 -- -- 81
2019-10-19 08:00:00 17.9 5 Nordeste 13 Nordeste 0 -- -- 85
2019-10-19 07:00:00 18 9 Nordeste 12 Nordeste 0 -- -- 85
2019-10-19 06:00:00 18.5 5 Nordeste 8 Nordeste 0 -- -- 83
2019-10-19 05:00:00 18.5 6 Nordeste 9 Nordeste 0 -- -- 83
2019-10-19 04:00:00 19 4 Nordeste 12 Nordeste 0 -- -- 82
2019-10-19 03:00:00 19.5 9 Nordeste 12 Nordeste 0 -- -- 81
2019-10-19 02:00:00 19.8 9 Nordeste 12 Nordeste 0 -- -- 80
2019-10-19 01:00:00 20.7 8 Nordeste 19 Norte 0 -- -- 76
2019-10-19 00:00:00 21.1 10 Norte 21 Norte 0 -- -- 74
2019-10-18 23:00:00 21.4 11 Norte 21 Norte 0 -- -- 73
2019-10-18 22:00:00 21.8 11 Norte 21 Norte 0 -- -- 72
2019-10-18 21:00:00 22.3 13 Nordeste 28 Nordeste 0 -- -- 73
2019-10-18 20:00:00 22.7 16 Nordeste 26 Nordeste 0 -- -- 71
2019-10-18 19:00:00 23.5 15 Nordeste 26 Nordeste 0 -- -- 68
2019-10-18 18:00:00 24.8 14 Nordeste 26 Este 0 -- -- 64
2019-10-18 17:00:00 24.4 16 Este 30 Nordeste 0 -- -- 67
2019-10-18 16:00:00 24.4 17 Este 32 Este 0 -- -- 66
2019-10-18 15:00:00 24.4 20 Este 39 Este 0 -- -- 66
2019-10-18 14:00:00 23.7 22 Este 40 Este 0 -- -- 68
2019-10-18 13:00:00 24.9 15 Este 27 Nordeste 0 -- -- 59
2019-10-18 12:00:00 24.4 13 Nordeste 28 Nordeste 0 -- -- 57
2019-10-18 11:00:00 23.6 14 Nordeste 24 Nordeste 0 -- -- 59
2019-10-18 10:00:00 22.4 4 Sudeste 9 Este 0 -- -- 70
2019-10-18 09:00:00 19.5 4 Nordeste 7 Nordeste 0 -- -- 78
2019-10-18 08:00:00 17.8 4 Norte 7 Nordeste 0 -- -- 83
2019-10-18 07:00:00 17.4 5 Nordeste 10 Nordeste 0 -- -- 83
2019-10-18 06:00:00 18.1 6 Nordeste 9 Nordeste 0 -- -- 81
2019-10-18 05:00:00 18.1 5 Nordeste 10 Nordeste 0 -- -- 82
2019-10-18 04:00:00 19.3 9 Nordeste 13 Nordeste 0 -- -- 80
2019-10-18 03:00:00 19.7 6 Nordeste 12 Nordeste 0 -- -- 80
2019-10-18 02:00:00 20.3 6 Nordeste 10 Nordeste 0 -- -- 78
2019-10-18 01:00:00 20.1 6 Nordeste 15 Norte 0 -- -- 78
2019-10-18 00:00:00 21.2 11 Norte 20 Norte 0 -- -- 74
2019-10-17 23:00:00 21.3 7 Norte 15 Norte 0 -- -- 72
2019-10-17 22:00:00 21.6 7 Nordeste 21 Nordeste 0 -- -- 71
2019-10-17 21:00:00 22 12 Nordeste 19 Norte 0 -- -- 68
2019-10-17 20:00:00 22.3 12 Nordeste 23 Nordeste 0 -- -- 65
2019-10-17 19:00:00 22.7 18 Nordeste 29 Nordeste 0 -- -- 64
2019-10-17 18:00:00 22.9 22 Nordeste 42 Nordeste 0 -- -- 63
2019-10-17 17:00:00 23.7 22 Nordeste 38 Este 0 -- -- 60
2019-10-17 16:00:00 23.7 23 Este 43 Nordeste 0 -- -- 56
2019-10-17 15:00:00 23.5 25 Este 46 Nordeste 0 -- -- 54
2019-10-17 14:00:00 23.1 26 Este 42 Nordeste 0 -- -- 56
2019-10-17 13:00:00 23.2 26 Este 41 Este 0 -- -- 63
2019-10-17 12:00:00 24 14 Norte 28 Norte 0 -- -- 55
2019-10-17 11:00:00 23.5 19 Nordeste 30 Nordeste 0 -- -- 57
2019-10-17 10:00:00 22.2 14 Nordeste 21 Norte 0 -- -- 63
2019-10-17 09:00:00 19.9 9 Nordeste 12 Nordeste 0 -- -- 76
2019-10-17 08:00:00 18.6 6 Nordeste 12 Nordeste 0 -- -- 81
2019-10-17 07:00:00 18.7 8 Nordeste 14 Nordeste 0 -- -- 81
2019-10-17 06:00:00 19.2 8 Nordeste 10 Nordeste 0 -- -- 79
2019-10-17 05:00:00 20.1 6 Nordeste 18 Norte 0 -- -- 76
2019-10-17 04:00:00 20.6 9 Norte 18 Norte 0 -- -- 74
2019-10-17 03:00:00 20.8 8 Norte 17 Norte 0 -- -- 74
2019-10-17 02:00:00 21.1 9 Nordeste 15 Nordeste 0 -- -- 74
2019-10-17 01:00:00 21.2 7 Norte 13 Norte 0 -- -- 72
2019-10-17 00:00:00 21.7 7 Norte 12 Nordeste 0 -- -- 69
2019-10-16 23:00:00 21.9 4 Norte 11 Nordeste 0 -- -- 68
2019-10-16 22:00:00 21.9 7 Norte 16 Nordeste 0 -- -- 66
2019-10-16 21:00:00 22.1 11 Nordeste 19 Nordeste 0 -- -- 65
2019-10-16 20:00:00 22.2 9 Nordeste 19 Nordeste 0 -- -- 68
2019-10-16 19:00:00 22.5 12 Nordeste 24 Nordeste 0 -- -- 64
2019-10-16 18:00:00 22.3 14 Nordeste 30 Nordeste 0 -- -- 70
2019-10-16 17:00:00 22.7 14 Este 29 Este 0 -- -- 67
2019-10-16 16:00:00 22.8 15 Este 41 Nordeste 0 -- -- 69
2019-10-16 15:00:00 22.6 24 Este 40 Nordeste 0 -- -- 66
2019-10-16 14:00:00 23.2 19 Este 35 Este 0 -- -- 63
2019-10-16 13:00:00 23.6 15 Este 30 Este 0 -- -- 65
2019-10-16 12:00:00 23.9 19 Nordeste 37 Nordeste 0 -- -- 61
2019-10-16 11:00:00 23.3 20 Nordeste 30 Nordeste 0 -- -- 64
2019-10-16 10:00:00 22.4 18 Nordeste 26 Nordeste 0 -- -- 70
2019-10-16 09:00:00 21.3 11 Norte 18 Norte 0 -- -- 73
2019-10-16 08:00:00 19.6 8 Nordeste 15 Nordeste 0 -- -- 78
2019-10-16 07:00:00 20.3 9 Nordeste 15 Norte 0 -- -- 77
2019-10-16 06:00:00 20.6 8 Norte 14 Norte 0 -- -- 74
2019-10-16 05:00:00 21.1 9 Norte 17 Norte 0 -- -- 74
2019-10-16 04:00:00 21.5 10 Nordeste 20 Nordeste 0 -- -- 72
2019-10-16 03:00:00 21.6 14 Nordeste 25 Nordeste 0 -- -- 71
2019-10-16 02:00:00 21.7 15 Nordeste 26 Norte 0 -- -- 68
2019-10-16 01:00:00 21.8 17 Nordeste 23 Nordeste 0 -- -- 67
2019-10-16 00:00:00 21.7 18 Nordeste 25 Nordeste 0 -- -- 70
2019-10-15 23:00:00 21.8 13 Nordeste 25 Nordeste 0 -- -- 68
2019-10-15 22:00:00 21.9 16 Nordeste 26 Este 0 -- -- 69
2019-10-15 21:00:00 21.8 19 Nordeste 33 Nordeste 0 -- -- 68
2019-10-15 20:00:00 21.9 17 Nordeste 30 Nordeste 0 -- -- 66
2019-10-15 19:00:00 22.2 17 Nordeste 31 Nordeste 0 -- -- 65
2019-10-15 18:00:00 22.9 18 Nordeste 34 Nordeste 0 -- -- 57
2019-10-15 17:00:00 23.1 18 Este 36 Nordeste 0 -- -- 61
2019-10-15 16:00:00 24.4 22 Nordeste 44 Nordeste 0 -- -- 54
2019-10-15 15:00:00 22.5 22 Este 41 Nordeste 0 -- -- 66
2019-10-15 14:00:00 22.8 22 Este 40 Este 0 -- -- 61
2019-10-15 13:00:00 22.8 20 Nordeste 47 Este 0 -- -- 64
2019-10-15 12:00:00 23.3 18 Este 37 Este 0 -- -- 63
2019-10-15 11:00:00 23.4 16 Nordeste 28 Este 0 -- -- 59
2019-10-15 10:00:00 22.8 15 Nordeste 26 Norte 0 -- -- 65
2019-10-15 09:00:00 21.9 8 Norte 18 Nordeste 0 -- -- 70
2019-10-15 08:00:00 20.7 11 Nordeste 19 Nordeste 0 -- -- 72
2019-10-15 07:00:00 20.8 12 Nordeste 23 Nordeste 0 -- -- 71
2019-10-15 06:00:00 21 15 Nordeste 29 Nordeste 0 -- -- 71
2019-10-15 05:00:00 20.9 15 Nordeste 28 Nordeste 0 -- -- 72
2019-10-15 04:00:00 21.2 17 Nordeste 26 Nordeste 0 -- -- 70
2019-10-15 03:00:00 21 13 Nordeste 22 Nordeste 0 -- -- 74
2019-10-15 02:00:00 21.2 13 Nordeste 21 Nordeste 0 -- -- 74
2019-10-15 01:00:00 21.3 13 Nordeste 20 Nordeste 0 -- -- 72
2019-10-15 00:00:00 21.6 14 Nordeste 28 Nordeste 0 -- -- 73
2019-10-14 23:00:00 21.8 16 Nordeste 26 Nordeste 0 -- -- 74
2019-10-14 22:00:00 22.1 15 Nordeste 28 Nordeste 0 -- -- 73
2019-10-14 21:00:00 22.4 17 Nordeste 27 Nordeste 0 -- -- 73
2019-10-14 20:00:00 22.6 17 Nordeste 27 Nordeste 0 -- -- 73
2019-10-14 19:00:00 23.3 17 Nordeste 30 Nordeste 0 -- -- 72
2019-10-14 18:00:00 23.4 18 Este 31 Este 0 -- -- 73
2019-10-14 17:00:00 23.9 18 Este 29 Este 0 -- -- 73
2019-10-14 16:00:00 24.3 17 Este 43 Este 0 -- -- 67
2019-10-14 15:00:00 23.4 22 Este 41 Este 0 -- -- 76
2019-10-14 14:00:00 23.5 21 Este 39 Nordeste 0 -- -- 73
2019-10-14 13:00:00 23.2 19 Este 37 Nordeste 0 -- -- 75
2019-10-14 12:00:00 23.2 21 Este 36 Nordeste 0 -- -- 74
2019-10-14 11:00:00 24.7 12 Nordeste 21 Norte 0 -- -- 63
2019-10-14 10:00:00 23 9 Nordeste 14 Nordeste 0 -- -- 72
2019-10-14 09:00:00 20.1 9 Nordeste 13 Nordeste 0 -- -- 78
2019-10-14 08:00:00 18 6 Norte 10 Nordeste 0 -- -- 81
2019-10-14 07:00:00 18.1 7 Norte 13 Norte 0 -- -- 81
2019-10-14 06:00:00 18.1 8 Nordeste 12 Nordeste 0 -- -- 79
2019-10-14 05:00:00 18.6 6 Nordeste 10 Nordeste 0 -- -- 78
2019-10-14 04:00:00 19.6 2 Norte 17 Nordeste 0 -- -- 75
2019-10-14 03:00:00 19.1 8 Nordeste 13 Nordeste 0 -- -- 75
2019-10-14 02:00:00 20.5 11 Norte 18 Norte 0 -- -- 69
2019-10-14 01:00:00 21.1 8 Norte 15 Norte 0 -- -- 68
2019-10-14 00:00:00 21.1 6 Norte 9 Nordeste 0 -- -- 71
2019-10-13 23:00:00 21.3 4 Nordeste 5 Nordeste 0 -- -- 74
2019-10-13 22:00:00 21.8 2 Sur 4 Sudeste 0 -- -- 78
2019-10-13 21:00:00 21.8 2 Sudeste 10 Sudeste 0 -- -- 78
2019-10-13 20:00:00 22.1 5 Este 15 Este 0 -- -- 78
2019-10-13 19:00:00 22.9 7 Sudeste 18 Este 0 -- -- 75
2019-10-13 18:00:00 23.5 9 Sudeste 16 Sudeste 0 -- -- 71
2019-10-13 17:00:00 23.3 9 Sudeste 16 Sudeste 0 -- -- 71
2019-10-13 16:00:00 23.6 10 Sudeste 17 Sudeste 0 -- -- 71
2019-10-13 15:00:00 24 9 Sudeste 19 Sudeste 0 -- -- 65
2019-10-13 14:00:00 24 11 Sudeste 18 Este 0 -- -- 66
2019-10-13 13:00:00 24.5 9 Sudeste 15 Sudeste 0 -- -- 63
2019-10-13 12:00:00 25.3 11 Sur 14 Sur 0 -- -- 60
2019-10-13 11:00:00 24.4 6 Nordeste 15 Nordeste 0 -- -- 55
2019-10-13 10:00:00 21.8 8 Nordeste 14 Nordeste 0 -- -- 69
2019-10-13 09:00:00 18.9 9 Norte 14 Norte 0 -- -- 78
2019-10-13 08:00:00 17.4 9 Norte 13 Nordeste 0 -- -- 84
2019-10-13 07:00:00 17.9 10 Nordeste 12 Nordeste 0 -- -- 82
2019-10-13 06:00:00 18.4 10 Nordeste 12 Nordeste 0 -- -- 82
2019-10-13 05:00:00 18.8 8 Nordeste 13 Nordeste 0 -- -- 81
2019-10-13 04:00:00 19.5 8 Nordeste 12 Nordeste 0 -- -- 80
2019-10-13 03:00:00 20.2 6 Nordeste 12 Nordeste 0 -- -- 79
2019-10-13 02:00:00 21 6 Norte 14 Norte 0 -- -- 75
2019-10-13 01:00:00 21.3 5 Norte 14 Norte 0 -- -- 73
2019-10-13 00:00:00 22 4 Norte 15 Norte 0 -- -- 75
2019-10-12 23:00:00 22.4 6 Norte 17 Norte 0 -- -- 75
2019-10-12 22:00:00 22.4 10 Norte 27 Norte 0 -- -- 72
2019-10-12 21:00:00 22.9 13 Nordeste 19 Norte 0 -- -- 65
2019-10-12 20:00:00 23.7 10 Norte 24 Norte 0 -- -- 63
2019-10-12 19:00:00 23.3 10 Este 19 Este 0 -- -- 75
2019-10-12 18:00:00 24.3 8 Sudeste 17 Este 0 -- -- 70
2019-10-12 17:00:00 24.9 8 Sudeste 17 Sudeste 0 -- -- 69
2019-10-12 16:00:00 24.5 9 Este 20 Este 0 -- -- 71
2019-10-12 15:00:00 24.6 9 Sudeste 26 Este 0 -- -- 72
2019-10-12 14:00:00 24.2 15 Este 28 Este 0 -- -- 71
2019-10-12 13:00:00 24.5 13 Este 31 Sudeste 0 -- -- 71
2019-10-12 12:00:00 23.9 15 Este 30 Este 0 -- -- 71
2019-10-12 11:00:00 24.1 6 Este 19 Nordeste 0 -- -- 65
2019-10-12 10:00:00 22.6 8 Norte 16 Nordeste 0 -- -- 71
2019-10-12 09:00:00 19 11 Nordeste 14 Nordeste 0 -- -- 83
2019-10-12 08:00:00 18.2 10 Nordeste 13 Nordeste 0 -- -- 86
2019-10-12 07:00:00 18.2 9 Nordeste 12 Nordeste 0 -- -- 86
2019-10-12 06:00:00 18.7 8 Nordeste 12 Nordeste 0 -- -- 85
2019-10-12 05:00:00 19.7 8 Nordeste 16 Nordeste 0 -- -- 82
2019-10-12 04:00:00 20 9 Nordeste 15 Norte 0 -- -- 81
2019-10-12 03:00:00 20.9 12 Norte 18 Norte 0 -- -- 79
2019-10-12 02:00:00 21 10 Norte 18 Norte 0 -- -- 78
2019-10-12 01:00:00 20.9 10 Nordeste 13 Nordeste 0 -- -- 74
2019-10-12 00:00:00 21.6 4 Nordeste 9 Norte 0 -- -- 71
2019-10-11 23:00:00 22 3 Norte 13 Norte 0 -- -- 67
2019-10-11 22:00:00 22.5 6 Norte 19 Norte 0 -- -- 68
2019-10-11 21:00:00 22.4 3 Sur 13 Este 0 -- -- 77
2019-10-11 20:00:00 22.6 5 Este 15 Este 0 -- -- 76
2019-10-11 19:00:00 23.5 5 Sudeste 12 Este 0 -- -- 73
2019-10-11 18:00:00 23.8 7 Sudeste 13 Este 0 -- -- 72
2019-10-11 17:00:00 24.5 8 Sudeste 13 Sudeste 0 -- -- 67
2019-10-11 16:00:00 24.3 8 Sudeste 14 Sudeste 0 -- -- 67
2019-10-11 15:00:00 24.4 8 Sudeste 13 Sudeste 0 -- -- 67
2019-10-11 14:00:00 24 10 Sudeste 14 Sudeste 0 -- -- 69
2019-10-11 13:00:00 24 10 Sudeste 14 Sudeste 0 -- -- 68
2019-10-11 12:00:00 23.9 9 Sur 16 Sudeste 0 -- -- 68
2019-10-11 11:00:00 24.7 7 Nordeste 16 Nordeste 0 -- -- 60
2019-10-11 10:00:00 22.4 5 Nordeste 10 Norte 0 -- -- 73
2019-10-11 09:00:00 18.9 8 Nordeste 9 Nordeste 0 -- -- 77
2019-10-11 08:00:00 18.7 6 Norte 8 Norte 0 -- -- 82
2019-10-11 07:00:00 18.8 6 Norte 9 Nordeste 0 -- -- 83
2019-10-11 06:00:00 18.7 5 Norte 8 Norte 0 -- -- 83
2019-10-11 05:00:00 19.4 5 Norte 9 Nordeste 0 -- -- 83
2019-10-11 04:00:00 19.8 8 Nordeste 12 Norte 0 -- -- 81
2019-10-11 03:00:00 19.9 3 Norte 6 Nordeste 0 -- -- 81
2019-10-11 02:00:00 20.4 5 Nordeste 8 Nordeste 0 -- -- 80
2019-10-11 01:00:00 21 7 Nordeste 12 Norte 0 -- -- 78
2019-10-11 00:00:00 21.9 4 Norte 7 Noroeste 0 -- -- 77
2019-10-10 23:00:00 22.2 3 Nordeste 5 Nordeste 0 -- -- 78
2019-10-10 22:00:00 22.1 2 Sudeste 6 Este 0 -- -- 79
2019-10-10 21:00:00 22.2 2 Sudeste 6 Sudeste 0 -- -- 80
2019-10-10 20:00:00 22.6 4 Sudeste 9 Sudeste 0 -- -- 78
2019-10-10 19:00:00 22.9 5 Sudeste 11 Sudeste 0 -- -- 76
2019-10-10 18:00:00 23.3 6 Sudeste 11 Sudeste 0 -- -- 74
2019-10-10 17:00:00 24.5 6 Sudeste 12 Sur 0 -- -- 71
2019-10-10 16:00:00 25 7 Sudeste 13 Sudeste 0 -- -- 70
2019-10-10 15:00:00 25.5 9 Sudeste 21 Este 0 -- -- 65
2019-10-10 14:00:00 24.9 11 Este 29 Este 0 -- -- 69
2019-10-10 13:00:00 23.9 18 Este 41 Este 0 -- -- 75
2019-10-10 12:00:00 23.7 16 Este 31 Este 0 -- -- 73
2019-10-10 11:00:00 24.3 13 Nordeste 23 Nordeste 0 -- -- 64
2019-10-10 10:00:00 22.5 6 Nordeste 13 Nordeste 0 -- -- 69
2019-10-10 09:00:00 19.9 9 Nordeste 11 Nordeste 0 -- -- 74
2019-10-10 08:00:00 19 7 Nordeste 10 Nordeste 0 -- -- 78
2019-10-10 07:00:00 18.6 8 Nordeste 10 Nordeste 0 -- -- 81
2019-10-10 06:00:00 18.9 6 Nordeste 8 Nordeste 0 -- -- 79
2019-10-10 05:00:00 18.7 8 Nordeste 12 Norte 0 -- -- 78
2019-10-10 04:00:00 19.5 8 Nordeste 10 Norte 0 -- -- 77
2019-10-10 03:00:00 20 4 Nordeste 10 Nordeste 0 -- -- 77
2019-10-10 02:00:00 20.7 6 Nordeste 9 Nordeste 0 -- -- 77
2019-10-10 01:00:00 21.1 6 Nordeste 14 Norte 0 -- -- 75
2019-10-10 00:00:00 22.1 5 Noroeste 10 Noroeste 0 -- -- 74
2019-10-09 23:00:00 22.4 5 Nordeste 16 Nordeste 0 -- -- 75
2019-10-09 22:00:00 22.5 9 Nordeste 18 Nordeste 0 -- -- 72
2019-10-09 21:00:00 22.7 10 Nordeste 19 Nordeste 0 -- -- 73
2019-10-09 20:00:00 23.2 10 Nordeste 19 Norte 0 -- -- 70
2019-10-09 19:00:00 23.6 9 Este 25 Este 0 -- -- 72
2019-10-09 18:00:00 23.9 12 Este 30 Este 0 -- -- 72
2019-10-09 17:00:00 23.6 16 Este 34 Este 0 -- -- 72
2019-10-09 16:00:00 23.2 22 Este 40 Este 0 -- -- 75
2019-10-09 15:00:00 23.7 20 Este 43 Este 0 -- -- 70
2019-10-09 14:00:00 23.9 22 Este 43 Este 0 -- -- 70
2019-10-09 13:00:00 24.8 13 Nordeste 27 Nordeste 0 -- -- 63
2019-10-09 12:00:00 24.4 11 Este 20 Nordeste 0 -- -- 64
2019-10-09 11:00:00 23.8 10 Nordeste 26 Nordeste 0 -- -- 63
2019-10-09 10:00:00 22.1 10 Nordeste 16 Nordeste 0 -- -- 70
2019-10-09 09:00:00 19.5 10 Nordeste 13 Nordeste 0 -- -- 79
2019-10-09 08:00:00 18.4 6 Nordeste 11 Norte 0 -- -- 84
2019-10-09 07:00:00 19.4 9 Norte 14 Norte 0 -- -- 81
2019-10-09 06:00:00 19.6 9 Nordeste 15 Norte 0 -- -- 81
2019-10-09 05:00:00 19.6 9 Norte 13 Norte 0 -- -- 81
2019-10-09 04:00:00 20.1 5 Nordeste 16 Nordeste 0 -- -- 82
2019-10-09 03:00:00 20.4 11 Nordeste 17 Norte 0 -- -- 80
2019-10-09 02:00:00 20.9 12 Norte 21 Norte 0 -- -- 79
2019-10-09 01:00:00 21.2 11 Norte 22 Norte 0 -- -- 79
2019-10-09 00:00:00 21.6 12 Norte 23 Norte 0 -- -- 78
2019-10-08 23:00:00 22.2 7 Norte 14 Nordeste 0 -- -- 79
2019-10-08 22:00:00 22.7 5 Norte 15 Nordeste 0 -- -- 76
2019-10-08 21:00:00 23 8 Nordeste 17 Norte 0 -- -- 76
2019-10-08 20:00:00 23.9 11 Norte 19 Norte 0 -- -- 72
2019-10-08 19:00:00 24 9 Sudeste 29 Este 0 -- -- 75
2019-10-08 18:00:00 24.5 13 Este 32 Este 0 -- -- 72
2019-10-08 17:00:00 24.2 18 Este 39 Este 0 -- -- 74
2019-10-08 16:00:00 24.3 21 Este 38 Este 0 -- -- 73
2019-10-08 15:00:00 24.5 21 Este 45 Este 0 -- -- 71
2019-10-08 14:00:00 24.3 23 Este 39 Este 0 -- -- 72
2019-10-08 13:00:00 24.7 18 Este 32 Sudeste 0 -- -- 70
2019-10-08 12:00:00 25.3 12 Nordeste 21 Este 0 -- -- 62
2019-10-08 11:00:00 23.9 14 Nordeste 24 Nordeste 0 -- -- 68
2019-10-08 10:00:00 22.7 10 Norte 18 Norte 0 -- -- 73
2019-10-08 09:00:00 21.4 12 Norte 23 Norte 0 -- -- 79
2019-10-08 08:00:00 20.6 8 Norte 17 Norte 0 -- -- 83
2019-10-08 07:00:00 19.8 6 Nordeste 12 Nordeste 0 -- -- 86
2019-10-08 06:00:00 20 6 Nordeste 10 Nordeste 0 -- -- 85
2019-10-08 05:00:00 20.9 6 Norte 16 Norte 0 -- -- 83
2019-10-08 04:00:00 21.3 10 Norte 18 Norte 0 -- -- 82
2019-10-08 03:00:00 21.6 7 Norte 15 Norte 0 -- -- 81
2019-10-08 02:00:00 21.7 9 Norte 17 Nordeste 0 -- -- 80
2019-10-08 01:00:00 22 12 Norte 18 Nordeste 0 -- -- 80
2019-10-08 00:00:00 22.4 9 Norte 17 Norte 0 -- -- 80
2019-10-07 23:00:00 22.8 10 Nordeste 17 Nordeste 0 -- -- 79
2019-10-07 22:00:00 23.2 9 Norte 16 Norte 0 -- -- 78
2019-10-07 21:00:00 23.7 7 Nordeste 15 Nordeste 0 -- -- 75
2019-10-07 20:00:00 24.6 9 Norte 17 Nordeste 0 -- -- 70
2019-10-07 19:00:00 24.9 3 Sudoeste 15 Este 0 -- -- 73
2019-10-07 18:00:00 25.5 6 Sudeste 17 Este 0 -- -- 71
2019-10-07 17:00:00 26 7 Sudeste 14 Sur 0 -- -- 68
2019-10-07 16:00:00 27.1 9 Sur 26 Este 0 -- -- 63
2019-10-07 15:00:00 25 15 Sudeste 33 Este 0 -- -- 72
2019-10-07 14:00:00 26.1 13 Este 24 Este 0 -- -- 66
2019-10-07 13:00:00 26.7 11 Nordeste 30 Este 0 -- -- 58
2019-10-07 12:00:00 24.4 10 Este 27 Este 0 -- -- 70
2019-10-07 11:00:00 25.7 4 Este 15 Sudoeste 0 -- -- 65
2019-10-07 10:00:00 23.7 12 Sudoeste 16 Sur 0 -- -- 73
2019-10-07 09:00:00 21 9 Nordeste 16 Norte 0 -- -- 79
2019-10-07 08:00:00 20.5 10 Nordeste 21 Norte 0 -- -- 80
2019-10-07 07:00:00 19.6 10 Nordeste 13 Nordeste 0 -- -- 82
2019-10-07 06:00:00 20.7 8 Norte 21 Norte 0 -- -- 78
2019-10-07 05:00:00 21 8 Norte 19 Norte 0 -- -- 77
2019-10-07 04:00:00 21.1 10 Norte 24 Nordeste 0 -- -- 78
2019-10-07 03:00:00 21.4 18 Nordeste 26 Norte 0 -- -- 77
2019-10-07 02:00:00 21.5 15 Nordeste 22 Norte 0 -- -- 76
2019-10-07 01:00:00 21.7 14 Nordeste 29 Nordeste 0 -- -- 76
2019-10-07 00:00:00 21.9 17 Nordeste 25 Nordeste 0 -- -- 75
2019-10-06 23:00:00 22.1 12 Nordeste 20 Nordeste 0 -- -- 75
2019-10-06 22:00:00 22.4 15 Nordeste 28 Nordeste 0 -- -- 75
2019-10-06 21:00:00 22.6 18 Nordeste 33 Nordeste 0 -- -- 75
2019-10-06 20:00:00 22.9 19 Nordeste 28 Nordeste 0 -- -- 73
2019-10-06 19:00:00 24 20 Nordeste 30 Nordeste 0 -- -- 69
2019-10-06 18:00:00 25 19 Nordeste 31 Norte 0 -- -- 65
2019-10-06 17:00:00 25.8 22 Nordeste 32 Nordeste 0 -- -- 62
2019-10-06 16:00:00 25.6 20 Nordeste 34 Este 0 -- -- 66
2019-10-06 15:00:00 26.5 15 Nordeste 30 Nordeste 0 -- -- 60
2019-10-06 14:00:00 26.2 19 Nordeste 31 Norte 0 -- -- 58
2019-10-06 13:00:00 25.6 16 Nordeste 33 Nordeste 0 -- -- 60
2019-10-06 12:00:00 25.1 23 Nordeste 37 Nordeste 0 -- -- 65
2019-10-06 11:00:00 23.9 23 Nordeste 35 Nordeste 0 -- -- 66
2019-10-06 10:00:00 23.3 21 Nordeste 33 Nordeste 0 -- -- 69
2019-10-06 09:00:00 22.5 21 Nordeste 32 Nordeste 0 -- -- 73
2019-10-06 08:00:00 22 12 Nordeste 21 Nordeste 0 -- -- 74
2019-10-06 07:00:00 21.7 9 Norte 24 Norte 0 -- -- 74
2019-10-06 06:00:00 22 13 Nordeste 29 Nordeste 0 -- -- 71
2019-10-06 05:00:00 22.3 14 Norte 30 Nordeste 0 -- -- 69
2019-10-06 04:00:00 22.6 21 Nordeste 33 Nordeste 0 -- -- 73
2019-10-06 03:00:00 22.7 23 Nordeste 35 Nordeste 0 -- -- 72
2019-10-06 02:00:00 22.7 18 Nordeste 32 Nordeste 0 -- -- 73
2019-10-06 01:00:00 22.6 19 Nordeste 33 Nordeste 0 -- -- 73
2019-10-06 00:00:00 22.7 22 Nordeste 35 Nordeste 0 -- -- 72
2019-10-05 23:00:00 22.8 20 Nordeste 34 Nordeste 0 -- -- 73
2019-10-05 22:00:00 22.9 24 Nordeste 37 Nordeste 0 -- -- 75
2019-10-05 21:00:00 23.2 23 Nordeste 33 Nordeste 0 -- -- 75
2019-10-05 20:00:00 23.6 24 Nordeste 43 Nordeste 0 -- -- 72
2019-10-05 19:00:00 24.5 28 Nordeste 40 Nordeste 0 -- -- 68
2019-10-05 18:00:00 25.7 27 Nordeste 47 Norte 0 -- -- 63
2019-10-05 17:00:00 26.5 26 Nordeste 42 Nordeste 0 -- -- 61
2019-10-05 16:00:00 27.2 26 Nordeste 42 Nordeste 0 -- -- 56
2019-10-05 15:00:00 27.1 27 Nordeste 44 Nordeste 0 -- -- 55
2019-10-05 14:00:00 27 27 Nordeste 44 Nordeste 0 -- -- 56
2019-10-05 13:00:00 26 28 Nordeste 44 Nordeste 0 -- -- 60
2019-10-05 12:00:00 26.3 24 Nordeste 42 Nordeste 0 -- -- 59
2019-10-05 11:00:00 25.6 23 Nordeste 36 Nordeste 0 -- -- 63
2019-10-05 10:00:00 24.2 21 Nordeste 34 Nordeste 0 -- -- 69
2019-10-05 09:00:00 22.9 14 Norte 25 Norte 0 -- -- 72
2019-10-05 08:00:00 22 12 Norte 31 Norte 0 -- -- 77
2019-10-05 07:00:00 22.2 21 Nordeste 33 Nordeste 0 -- -- 76
2019-10-05 06:00:00 22.1 18 Nordeste 25 Nordeste 0 -- -- 75
2019-10-05 05:00:00 21.7 12 Norte 31 Nordeste 0 -- -- 76
2019-10-05 04:00:00 21.8 14 Norte 24 Norte 0 -- -- 78
2019-10-05 03:00:00 21.9 14 Nordeste 26 Norte 0 -- -- 77
2019-10-05 02:00:00 22 14 Norte 30 Nordeste 0 -- -- 75
2019-10-05 01:00:00 22.3 9 Norte 24 Norte 0 -- -- 69
2019-10-05 00:00:00 22.4 15 Norte 29 Norte 0 -- -- 73
2019-10-04 23:00:00 22.7 14 Norte 32 Norte 0 -- -- 72
2019-10-04 22:00:00 23.2 15 Norte 34 Norte 0 -- -- 69
2019-10-04 21:00:00 23.8 20 Norte 37 Norte 0 -- -- 66
2019-10-04 20:00:00 24.8 20 Norte 33 Norte 0 -- -- 64
2019-10-04 19:00:00 27.2 16 Nordeste 29 Norte 0 -- -- 55
2019-10-04 18:00:00 28 20 Nordeste 31 Norte 0 -- -- 56
2019-10-04 17:00:00 29 21 Nordeste 45 Nordeste 0 -- -- 43
2019-10-04 16:00:00 29.1 28 Nordeste 41 Nordeste 0 -- -- 39
2019-10-04 15:00:00 29.2 26 Nordeste 42 Nordeste 0 -- -- 38
2019-10-04 14:00:00 27.5 29 Nordeste 43 Nordeste 0 -- -- 55
2019-10-04 13:00:00 26.7 27 Nordeste 41 Nordeste 0 -- -- 56
2019-10-04 12:00:00 25.7 29 Nordeste 39 Norte 0 -- -- 62
2019-10-04 11:00:00 25 26 Nordeste 38 Nordeste 0 -- -- 64
2019-10-04 10:00:00 23.2 22 Nordeste 33 Norte 0 -- -- 73
2019-10-04 09:00:00 22.6 13 Norte 21 Norte 0 -- -- 75
2019-10-04 08:00:00 21.6 10 Norte 21 Norte 0 -- -- 80
2019-10-04 07:00:00 21.6 10 Norte 36 Norte 0 -- -- 80
2019-10-04 06:00:00 22.1 22 Norte 42 Norte 0 -- -- 78
2019-10-04 05:00:00 22.3 24 Norte 41 Norte 0 -- -- 78
2019-10-04 04:00:00 22.2 21 Norte 37 Norte 0 -- -- 78
2019-10-04 03:00:00 22.6 16 Norte 34 Norte 0 -- -- 75
2019-10-04 02:00:00 22.6 18 Norte 30 Norte 0 -- -- 75
2019-10-04 01:00:00 23 18 Norte 36 Norte 0 -- -- 73
2019-10-04 00:00:00 23.1 19 Norte 39 Norte 0 -- -- 72
2019-10-03 23:00:00 23.1 21 Norte 41 Norte 0 -- -- 73
2019-10-03 22:00:00 23.7 14 Norte 33 Norte 0 -- -- 69
2019-10-03 21:00:00 24 18 Norte 32 Noroeste 0 -- -- 69
2019-10-03 20:00:00 25 18 Norte 38 Norte 0 -- -- 65
2019-10-03 19:00:00 27 17 Norte 36 Norte 0 -- -- 57
2019-10-03 18:00:00 28.8 21 Norte 37 Norte 0 -- -- 55
2019-10-03 17:00:00 28.5 9 Sudoeste 29 Oeste 0 -- -- 61
2019-10-03 16:00:00 28.6 15 Sudoeste 29 Nordeste 0 -- -- 63
2019-10-03 15:00:00 31.1 17 Nordeste 29 Nordeste 0 -- -- 47
2019-10-03 14:00:00 30.4 17 Nordeste 40 Nordeste 0 -- -- 53
2019-10-03 13:00:00 30.9 25 Nordeste 37 Nordeste 0 -- -- 41
2019-10-03 12:00:00 29.8 19 Nordeste 35 Nordeste 0 -- -- 45
2019-10-03 11:00:00 27.9 19 Nordeste 33 Nordeste 0 -- -- 53
2019-10-03 10:00:00 26.4 14 Norte 30 Norte 0 -- -- 59
2019-10-03 09:00:00 25.1 13 Nordeste 20 Norte 0 -- -- 59
2019-10-03 08:00:00 23.2 9 Nordeste 19 Norte 0 -- -- 66
2019-10-03 07:00:00 24.7 13 Norte 28 Nordeste 0 -- -- 52
2019-10-03 06:00:00 24.8 19 Norte 38 Norte 0 -- -- 52
2019-10-03 05:00:00 25 19 Norte 32 Norte 0 -- -- 53
2019-10-03 04:00:00 25 18 Norte 33 Norte 0 -- -- 58
2019-10-03 03:00:00 25 18 Norte 34 Norte 0 -- -- 60
2019-10-03 02:00:00 25.2 21 Norte 35 Norte 0 -- -- 59
2019-10-03 01:00:00 25.8 20 Norte 35 Norte 0 -- -- 54
2019-10-03 00:00:00 26.8 17 Norte 32 Norte 0 -- -- 46
2019-10-02 23:00:00 27.1 19 Norte 30 Norte 0 -- -- 45
2019-10-02 22:00:00 27.3 19 Norte 31 Norte 0 -- -- 44
2019-10-02 21:00:00 27.8 17 Norte 29 Norte 0 -- -- 39
2019-10-02 20:00:00 28.8 5 Este 21 Este 0 -- -- 34
2019-10-02 19:00:00 30.2 11 Nordeste 33 Norte 0 -- -- 33
2019-10-02 18:00:00 30.6 21 Nordeste 34 Nordeste 0 -- -- 32
2019-10-02 17:00:00 31.2 24 Nordeste 35 Nordeste 0 -- -- 27
2019-10-02 16:00:00 30.2 15 Este 28 Este 0 -- -- 28
2019-10-02 15:00:00 30 13 Este 32 Este 0 -- -- 33
2019-10-02 14:00:00 30 18 Nordeste 33 Nordeste 0 -- -- 34
2019-10-02 13:00:00 30.2 14 Este 28 Norte 0 -- -- 32
2019-10-02 12:00:00 29.7 21 Norte 32 Nordeste 0 -- -- 38
2019-10-02 11:00:00 27.8 21 Nordeste 31 Nordeste 0 -- -- 49
2019-10-02 10:00:00 26.7 19 Norte 28 Nordeste 0 -- -- 51
2019-10-02 09:00:00 25.2 8 Noroeste 29 Noroeste 0 -- -- 57
2019-10-02 08:00:00 25.1 16 Nordeste 27 Nordeste 0 -- -- 45
2019-10-02 07:00:00 26.1 15 Nordeste 33 Nordeste 0 -- -- 38
2019-10-02 06:00:00 26.8 14 Nordeste 31 Norte 0 -- -- 34
2019-10-02 05:00:00 26.6 20 Norte 30 Norte 0 -- -- 34
2019-10-02 04:00:00 26.2 22 Norte 38 Norte 0 -- -- 40
2019-10-02 03:00:00 25.5 24 Norte 37 Norte 0 -- -- 48
2019-10-02 02:00:00 25.8 22 Norte 38 Norte 0 -- -- 45
2019-10-02 01:00:00 25.9 22 Norte 37 Norte 0 -- -- 43
2019-10-02 00:00:00 25.8 19 Norte 39 Norte 0 -- -- 46
2019-10-01 23:00:00 26.3 20 Norte 40 Norte 0 -- -- 42
2019-10-01 22:00:00 26 21 Norte 36 Norte 0 -- -- 47
2019-10-01 21:00:00 26.6 22 Norte 40 Nordeste 0 -- -- 45
2019-10-01 20:00:00 28.7 22 Norte 38 Nordeste 0 -- -- 32
2019-10-01 19:00:00 30.3 22 Norte 42 Norte 0 -- -- 27
2019-10-01 18:00:00 31.3 27 Norte 42 Nordeste 0 -- -- 24
2019-10-01 17:00:00 31.4 32 Nordeste 45 Nordeste 0 -- -- 27
2019-10-01 16:00:00 31.7 24 Nordeste 41 Nordeste 0 -- -- 31
2019-10-01 15:00:00 32.1 25 Nordeste 49 Nordeste 0 -- -- 26
2019-10-01 14:00:00 31.6 32 Norte 48 Nordeste 0 -- -- 30
2019-10-01 13:00:00 31.1 27 Norte 40 Norte 0 -- -- 39
2019-10-01 12:00:00 29.8 24 Norte 39 Norte 0 -- -- 44
2019-10-01 11:00:00 28.2 5 Sudoeste 16 Sur 0 -- -- 57
2019-10-01 10:00:00 26.1 3 Sudeste 10 Este 0 -- -- 64
2019-10-01 09:00:00 24.3 5 Sur 15 Este 0 -- -- 71
2019-10-01 08:00:00 22.6 12 Nordeste 18 Nordeste 0 -- -- 68
2019-10-01 07:00:00 22.4 12 Nordeste 17 Norte 0 -- -- 73
2019-10-01 06:00:00 22.6 9 Nordeste 18 Norte 0 -- -- 74
2019-10-01 05:00:00 23.5 12 Noroeste 19 Noroeste 0 -- -- 69
2019-10-01 04:00:00 23.7 9 Nordeste 31 Noroeste 0 -- -- 69
2019-10-01 03:00:00 24.9 15 Norte 32 Norte 0 -- -- 63
2019-10-01 02:00:00 24 19 Norte 36 Norte 0 -- -- 71
2019-10-01 01:00:00 23.8 21 Norte 39 Norte 0 -- -- 77
2019-10-01 00:00:00 23.7 8 Norte 17 Nordeste 0 -- -- 84
2019-09-30 23:00:00 23.7 6 Sur 12 Sudoeste 0 -- -- 88
2019-09-30 22:00:00 23.6 6 Sudoeste 18 Sudoeste 0 -- -- 89
2019-09-30 21:00:00 24 14 Sudoeste 22 Sudoeste 0 -- -- 87
2019-09-30 20:00:00 25.8 18 Sudoeste 22 Sudoeste 0 -- -- 74
2019-09-30 19:00:00 26.6 9 Sudoeste 17 Sudoeste 0 -- -- 70
2019-09-30 18:00:00 27.3 9 Sudoeste 18 Sudoeste 0 -- -- 68
2019-09-30 17:00:00 27.2 14 Sudoeste 22 Sudoeste 0 -- -- 74
2019-09-30 16:00:00 27.6 14 Sudoeste 26 Sudoeste 0 -- -- 72
2019-09-30 15:00:00 27.8 15 Sudoeste 24 Sur 0 -- -- 68
2019-09-30 14:00:00 27.6 14 Sudoeste 27 Sudoeste 0 -- -- 68
2019-09-30 13:00:00 27.1 20 Sudoeste 28 Sudoeste 0 -- -- 68
2019-09-30 12:00:00 27.2 12 Sudoeste 19 Sudoeste 0 -- -- 65
2019-09-30 11:00:00 27.8 9 Sudoeste 21 Sur 0 -- -- 57
2019-09-30 10:00:00 29.8 8 Norte 16 Norte 0 -- -- 40
2019-09-30 09:00:00 25.3 9 Nordeste 26 Norte 0 -- -- 55
2019-09-30 08:00:00 25.1 19 Norte 28 Norte 0 -- -- 52
2019-09-30 07:00:00 24.5 7 Nordeste 20 Nordeste 0 -- -- 48
2019-09-30 06:00:00 26.4 10 Norte 31 Norte 0 -- -- 42
2019-09-30 05:00:00 24.7 12 Nordeste 24 Norte 0 -- -- 47
2019-09-30 04:00:00 25.2 17 Norte 27 Norte 0 -- -- 48
2019-09-30 03:00:00 25.4 17 Norte 31 Norte 0 -- -- 53
2019-09-30 02:00:00 25 12 Nordeste 30 Norte 0 -- -- 53
2019-09-30 01:00:00 24.2 21 Norte 34 Norte 0 -- -- 61
2019-09-30 00:00:00 24.7 15 Norte 26 Norte 0 -- -- 57
2019-09-29 23:00:00 24.3 10 Norte 28 Norte 0 -- -- 70
2019-09-29 22:00:00 24.4 13 Nordeste 24 Norte 0 -- -- 73
2019-09-29 21:00:00 25.4 17 Norte 27 Norte 0 -- -- 67
2019-09-29 20:00:00 27.4 14 Nordeste 29 Noroeste 0 -- -- 60
2019-09-29 19:00:00 29 14 Nordeste 26 Norte 0 -- -- 51
2019-09-29 18:00:00 29.6 20 Nordeste 29 Nordeste 0 -- -- 44
2019-09-29 17:00:00 30.2 19 Nordeste 28 Nordeste 0 -- -- 42
2019-09-29 16:00:00 30.4 18 Nordeste 28 Este 0 -- -- 40
2019-09-29 15:00:00 26.4 15 Este 36 Este 0 -- -- 66
2019-09-29 14:00:00 26.6 12 Este 24 Este 0 -- -- 68
2019-09-29 13:00:00 28.8 14 Norte 32 Nordeste 0 -- -- 52
2019-09-29 12:00:00 25.7 17 Nordeste 38 Nordeste 0 -- -- 67
2019-09-29 11:00:00 24.5 22 Nordeste 32 Norte 0 -- -- 67
2019-09-29 10:00:00 23.1 15 Nordeste 31 Norte 0 -- -- 75
2019-09-29 09:00:00 22.3 13 Nordeste 23 Nordeste 0 -- -- 78
2019-09-29 08:00:00 21.4 14 Norte 29 Norte 0 -- -- 82
2019-09-29 07:00:00 21.6 15 Norte 26 Norte 0 -- -- 81
2019-09-29 06:00:00 21.6 12 Norte 29 Nordeste 0 -- -- 82
2019-09-29 05:00:00 21.7 15 Norte 25 Nordeste 0 -- -- 82
2019-09-29 04:00:00 21.8 13 Nordeste 22 Norte 0 -- -- 82
2019-09-29 03:00:00 22.2 9 Norte 18 Nordeste 0 -- -- 80
2019-09-29 02:00:00 22.3 12 Nordeste 18 Norte 0 -- -- 80
2019-09-29 01:00:00 22.7 12 Norte 22 Norte 0 -- -- 77
2019-09-29 00:00:00 23 10 Norte 20 Norte 0 -- -- 76
2019-09-28 23:00:00 23 11 Norte 24 Norte 0 -- -- 75
2019-09-28 22:00:00 23.4 13 Norte 23 Norte 0 -- -- 77
2019-09-28 21:00:00 23.9 14 Nordeste 23 Nordeste 0 -- -- 73
2019-09-28 20:00:00 25.1 12 Norte 19 Norte 0 -- -- 67
2019-09-28 19:00:00 26.2 6 Oeste 27 Norte 0 -- -- 66
2019-09-28 18:00:00 28.1 13 Norte 27 Este 0 -- -- 54
2019-09-28 17:00:00 25.5 17 Este 39 Este 0 -- -- 69
2019-09-28 16:00:00 25.5 18 Este 37 Este 0 -- -- 69
2019-09-28 15:00:00 25.3 17 Este 37 Este 0 -- -- 70
2019-09-28 14:00:00 27.1 14 Nordeste 28 Nordeste 0 -- -- 57
2019-09-28 13:00:00 25.9 16 Nordeste 30 Norte 0 -- -- 62
2019-09-28 12:00:00 24.7 21 Nordeste 30 Nordeste 0 -- -- 67
2019-09-28 11:00:00 24.4 19 Nordeste 32 Nordeste 0 -- -- 69
2019-09-28 10:00:00 23.5 16 Nordeste 23 Nordeste 0 -- -- 72
2019-09-28 09:00:00 22.4 12 Nordeste 18 Nordeste 0 -- -- 76
2019-09-28 08:00:00 21.3 12 Norte 24 Nordeste 0 -- -- 81
2019-09-28 07:00:00 21.4 10 Norte 22 Norte 0 -- -- 81
2019-09-28 06:00:00 21.5 12 Norte 23 Norte 0 -- -- 81
2019-09-28 05:00:00 21.6 12 Norte 22 Norte 0 -- -- 80
2019-09-28 04:00:00 21.7 12 Norte 20 Norte 0 -- -- 79
2019-09-28 03:00:00 22 10 Nordeste 22 Norte 0 -- -- 79
2019-09-28 02:00:00 22.2 12 Norte 22 Nordeste 0 -- -- 78
2019-09-28 01:00:00 22.5 13 Norte 22 Nordeste 0 -- -- 78
2019-09-28 00:00:00 22.7 14 Nordeste 22 Norte 0 -- -- 77
2019-09-27 23:00:00 23 13 Nordeste 23 Nordeste 0 -- -- 77
2019-09-27 22:00:00 23.2 12 Nordeste 22 Nordeste 0 -- -- 77
2019-09-27 21:00:00 23.5 13 Nordeste 22 Norte 0 -- -- 75
2019-09-27 20:00:00 24.1 14 Nordeste 25 Nordeste 0 -- -- 72
2019-09-27 19:00:00 25.3 15 Nordeste 26 Nordeste 0 -- -- 67
2019-09-27 18:00:00 26.4 17 Nordeste 28 Nordeste 0 -- -- 64
2019-09-27 17:00:00 27.3 15 Nordeste 28 Nordeste 0 -- -- 61
2019-09-27 16:00:00 27.2 14 Nordeste 36 Este 0 -- -- 60
2019-09-27 15:00:00 24.7 23 Este 44 Nordeste 0 -- -- 72
2019-09-27 14:00:00 25.2 21 Este 44 Este 0 -- -- 69
2019-09-27 13:00:00 25.7 16 Nordeste 30 Nordeste 0 -- -- 65
2019-09-27 12:00:00 25.9 18 Nordeste 30 Nordeste 0 -- -- 60
2019-09-27 11:00:00 24.8 19 Nordeste 30 Norte 0 -- -- 65
2019-09-27 10:00:00 23.8 18 Nordeste 27 Norte 0 -- -- 71
2019-09-27 09:00:00 22.7 10 Norte 18 Norte 0 -- -- 73
2019-09-27 08:00:00 21.6 8 Nordeste 14 Norte 0 -- -- 78
2019-09-27 07:00:00 21.4 8 Nordeste 18 Norte 0 -- -- 79
2019-09-27 06:00:00 21.5 8 Nordeste 15 Nordeste 0 -- -- 78
2019-09-27 05:00:00 21.8 8 Norte 18 Norte 0 -- -- 77
2019-09-27 04:00:00 22 8 Norte 23 Norte 0 -- -- 77
2019-09-27 03:00:00 22 12 Nordeste 21 Norte 0 -- -- 77
2019-09-27 02:00:00 22.3 13 Norte 24 Nordeste 0 -- -- 77
2019-09-27 01:00:00 22.6 15 Nordeste 24 Norte 0 -- -- 76
2019-09-27 00:00:00 22.9 17 Nordeste 30 Nordeste 0 -- -- 76
2019-09-26 23:00:00 23.2 18 Nordeste 26 Nordeste 0 -- -- 76
2019-09-26 22:00:00 23.4 15 Nordeste 24 Nordeste 0 -- -- 76
2019-09-26 21:00:00 23.6 15 Nordeste 23 Nordeste 0 -- -- 74
2019-09-26 20:00:00 24.2 13 Nordeste 23 Nordeste 0 -- -- 72
2019-09-26 19:00:00 25 15 Nordeste 25 Nordeste 0 -- -- 70
2019-09-26 18:00:00 25.9 17 Nordeste 29 Nordeste 0 -- -- 66
2019-09-26 17:00:00 25.8 18 Nordeste 36 Este 0 -- -- 69
2019-09-26 16:00:00 25.4 18 Este 40 Este 0 -- -- 71
2019-09-26 15:00:00 25.1 24 Este 46 Este 0 -- -- 71
2019-09-26 14:00:00 25.3 22 Este 39 Sudeste 0 -- -- 69
2019-09-26 13:00:00 27 21 Nordeste 34 Nordeste 0 -- -- 60
2019-09-26 12:00:00 26.3 17 Nordeste 31 Norte 0 -- -- 62
2019-09-26 11:00:00 25.3 17 Norte 29 Nordeste 0 -- -- 64
2019-09-26 10:00:00 24.2 17 Nordeste 28 Nordeste 0 -- -- 69
2019-09-26 09:00:00 23.4 16 Nordeste 25 Norte 0 -- -- 71
2019-09-26 08:00:00 22.8 11 Nordeste 20 Nordeste 0 -- -- 73
2019-09-26 07:00:00 22.5 10 Norte 18 Norte 0 -- -- 75
2019-09-26 06:00:00 22.4 9 Nordeste 26 Nordeste 0 -- -- 76
2019-09-26 05:00:00 22.4 12 Norte 26 Norte 0 -- -- 76
2019-09-26 04:00:00 22.7 17 Nordeste 31 Nordeste 0 -- -- 76
2019-09-26 03:00:00 22.5 13 Nordeste 23 Norte 0 -- -- 77
2019-09-26 02:00:00 22.6 15 Nordeste 30 Nordeste 0 -- -- 76
2019-09-26 01:00:00 23 17 Nordeste 28 Nordeste 0 -- -- 77
2019-09-26 00:00:00 23 19 Nordeste 30 Nordeste 0 -- -- 76
2019-09-25 23:00:00 23.2 20 Nordeste 31 Nordeste 0 -- -- 75
2019-09-25 22:00:00 23.5 21 Nordeste 35 Norte 0 -- -- 74
2019-09-25 21:00:00 23.9 20 Nordeste 30 Nordeste 0 -- -- 73
2019-09-25 20:00:00 24.4 16 Nordeste 28 Nordeste 0 -- -- 72
2019-09-25 19:00:00 25.2 17 Nordeste 32 Nordeste 0 -- -- 71
2019-09-25 18:00:00 26.2 17 Nordeste 30 Este 0 -- -- 67
2019-09-25 17:00:00 25.8 22 Este 40 Este 0 -- -- 68
2019-09-25 16:00:00 25.6 24 Este 42 Nordeste 0 -- -- 69
2019-09-25 15:00:00 26.7 20 Este 43 Este 0 -- -- 63
2019-09-25 14:00:00 26.8 18 Este 37 Este 0 -- -- 63
2019-09-25 13:00:00 27.7 21 Nordeste 32 Nordeste 0 -- -- 53
2019-09-25 12:00:00 26.9 18 Nordeste 29 Nordeste 0 -- -- 55
2019-09-25 11:00:00 25.4 15 Nordeste 26 Nordeste 0 -- -- 62
2019-09-25 10:00:00 23.8 13 Nordeste 21 Nordeste 0 -- -- 67
2019-09-25 09:00:00 22.3 10 Norte 17 Norte 0 -- -- 75
2019-09-25 08:00:00 20.9 8 Norte 17 Norte 0 -- -- 79
2019-09-25 07:00:00 20.9 8 Norte 17 Norte 0 -- -- 80
2019-09-25 06:00:00 21.1 13 Nordeste 23 Norte 0 -- -- 80
2019-09-25 05:00:00 21.1 10 Norte 20 Nordeste 0 -- -- 79
2019-09-25 04:00:00 21.3 10 Norte 21 Norte 0 -- -- 78
2019-09-25 03:00:00 21.5 12 Norte 23 Norte 0 -- -- 77
2019-09-25 02:00:00 21.9 10 Norte 22 Norte 0 -- -- 76
2019-09-25 01:00:00 22.1 11 Norte 21 Nordeste 0 -- -- 74
2019-09-25 00:00:00 22.5 12 Nordeste 23 Nordeste 0 -- -- 73
2019-09-24 23:00:00 22.9 14 Nordeste 23 Nordeste 0 -- -- 72
2019-09-24 22:00:00 23.1 15 Nordeste 28 Nordeste 0 -- -- 74
2019-09-24 21:00:00 23.3 17 Nordeste 26 Nordeste 0 -- -- 73
2019-09-24 20:00:00 24.1 15 Nordeste 25 Norte 0 -- -- 70
2019-09-24 19:00:00 25.4 17 Nordeste 33 Nordeste 0 -- -- 65
2019-09-24 18:00:00 26.3 15 Nordeste 32 Nordeste 0 -- -- 61
2019-09-24 17:00:00 26.7 19 Nordeste 31 Nordeste 0 -- -- 60
2019-09-24 16:00:00 27.8 15 Nordeste 33 Este 0 -- -- 56
2019-09-24 15:00:00 26.2 19 Este 35 Este 0 -- -- 63
2019-09-24 14:00:00 27 16 Nordeste 32 Nordeste 0 -- -- 60
2019-09-24 13:00:00 27 15 Nordeste 31 Nordeste 0 -- -- 54
2019-09-24 12:00:00 25.4 15 Nordeste 35 Nordeste 0 -- -- 58
2019-09-24 11:00:00 24.6 17 Nordeste 27 Nordeste 0 -- -- 61
2019-09-24 10:00:00 23.6 13 Nordeste 25 Nordeste 0 -- -- 66
2019-09-24 09:00:00 22.6 9 Norte 15 Nordeste 0 -- -- 71
2019-09-24 08:00:00 21.6 8 Norte 19 Norte 0 -- -- 73
2019-09-24 07:00:00 21.5 10 Norte 18 Norte 0 -- -- 74
2019-09-24 06:00:00 21.4 7 Norte 21 Norte 0 -- -- 74
2019-09-24 05:00:00 21.6 10 Norte 19 Norte 0 -- -- 73
2019-09-24 04:00:00 21.8 10 Norte 19 Nordeste 0 -- -- 73
2019-09-24 03:00:00 22 12 Nordeste 21 Nordeste 0 -- -- 73
2019-09-24 02:00:00 22.4 11 Norte 23 Nordeste 0 -- -- 72
2019-09-24 01:00:00 22.8 13 Nordeste 22 Norte 0 -- -- 73
2019-09-24 00:00:00 22.8 14 Nordeste 30 Nordeste 0 -- -- 73
2019-09-23 23:00:00 23.1 17 Nordeste 31 Nordeste 0 -- -- 71
2019-09-23 22:00:00 23.4 19 Nordeste 29 Nordeste 0 -- -- 71
2019-09-23 21:00:00 23.7 21 Nordeste 32 Nordeste 0 -- -- 70
2019-09-23 20:00:00 24.5 21 Nordeste 31 Nordeste 0 -- -- 67
2019-09-23 19:00:00 25.6 18 Nordeste 31 Nordeste 0 -- -- 63
2019-09-23 18:00:00 25.7 21 Nordeste 37 Sudeste 0 -- -- 64
2019-09-23 17:00:00 26.2 18 Nordeste 36 Nordeste 0 -- -- 62
2019-09-23 16:00:00 25.8 18 Este 38 Este 0 -- -- 64
2019-09-23 15:00:00 25.2 23 Este 48 Este 0 -- -- 68
2019-09-23 14:00:00 25.8 16 Este 39 Este 0 -- -- 64
2019-09-23 13:00:00 26.7 17 Nordeste 32 Norte 0 -- -- 57
2019-09-23 12:00:00 26.1 17 Nordeste 30 Nordeste 0 -- -- 58
2019-09-23 11:00:00 25 17 Nordeste 31 Nordeste 0 -- -- 63
2019-09-23 10:00:00 24 20 Nordeste 28 Nordeste 0 -- -- 66
2019-09-23 09:00:00 23.3 14 Nordeste 23 Nordeste 0 -- -- 70
2019-09-23 08:00:00 22.7 12 Nordeste 21 Norte 0 -- -- 72
2019-09-23 07:00:00 23.1 13 Nordeste 21 Norte 0 -- -- 71
2019-09-23 06:00:00 23.2 14 Nordeste 21 Nordeste 0 -- -- 76
2019-09-23 05:00:00 23.3 9 Norte 17 Norte 0 -- -- 75
2019-09-23 04:00:00 23.2 13 Nordeste 23 Norte 0 -- -- 76
2019-09-23 03:00:00 23.2 10 Nordeste 21 Nordeste 0 -- -- 76
2019-09-23 02:00:00 23.3 14 Nordeste 26 Nordeste 0 -- -- 77
2019-09-23 01:00:00 23.8 16 Nordeste 23 Nordeste 0 -- -- 79
2019-09-23 00:00:00 24.2 13 Nordeste 24 Nordeste 0 -- -- 80
2019-09-22 23:00:00 24.6 13 Nordeste 23 Nordeste 0 -- -- 79
2019-09-22 22:00:00 24.9 10 Nordeste 16 Norte 0 -- -- 77
2019-09-22 21:00:00 25.2 9 Nordeste 17 Nordeste 0 -- -- 73
2019-09-22 20:00:00 24.9 4 Sudoeste 9 Oeste 0 -- -- 77
2019-09-22 19:00:00 25 4 Sudeste 12 Sur 0 -- -- 76
2019-09-22 18:00:00 25.9 4 Sur 17 Este 0 -- -- 73
2019-09-22 17:00:00 24.8 9 Sudeste 20 Este 0 -- -- 76
2019-09-22 16:00:00 25 7 Sudeste 32 Este 0 -- -- 76
2019-09-22 15:00:00 24.7 18 Este 42 Este 0 -- -- 79
2019-09-22 14:00:00 24.9 24 Este 44 Este 0 -- -- 75
2019-09-22 13:00:00 25.6 18 Este 36 Este 0 -- -- 70
2019-09-22 12:00:00 25.8 12 Este 25 Este 0 -- -- 71
2019-09-22 11:00:00 25.5 9 Este 21 Nordeste 0 -- -- 72
2019-09-22 10:00:00 24.6 13 Nordeste 20 Norte 0 -- -- 72
2019-09-22 09:00:00 22.8 8 Nordeste 13 Nordeste 0 -- -- 79
2019-09-22 08:00:00 20.9 8 Nordeste 12 Norte 0 -- -- 84
2019-09-22 07:00:00 20.9 7 Nordeste 12 Nordeste 0 -- -- 84
2019-09-22 06:00:00 20.8 7 Nordeste 10 Nordeste 0 -- -- 83
2019-09-22 05:00:00 21.4 4 Norte 9 Norte 0 -- -- 82
2019-09-22 04:00:00 21.5 0 Calma 9 Norte 0 -- -- 83
2019-09-22 03:00:00 21.9 7 Norte 13 Norte 0 -- -- 81
2019-09-22 02:00:00 22.3 5 Norte 13 Norte 0 -- -- 76
2019-09-22 01:00:00 22.8 5 Noroeste 14 Norte 0 -- -- 71
2019-09-22 00:00:00 22.7 2 Norte 13 Este 0 -- -- 81